Time;durP1;ratioP1;P1;durP2;ratioP2;P2;SDS_P1;SDS_P2;PMS_P1;PMS_P2;Temp;Humidity;BMP_temperature;BMP_pressure;BME280_temperature;BME280_humidity;BME280_pressure;Samples;Min_cycle;Max_cycle;Signal;HPM_P1;HPM_P2
2021/10/19 00:00:56;;;;;;;13.80;12.20;;;13.70;86.30;;;;;;5115810;28;20450;-65
2021/10/19 00:03:23;;;;;;;14.47;11.90;;;13.70;86.40;;;;;;5116026;28;20931;-65
2021/10/19 00:05:50;;;;;;;13.47;12.10;;;13.70;86.40;;;;;;5115682;28;20479;-65
2021/10/19 00:08:17;;;;;;;16.90;12.90;;;13.70;86.30;;;;;;5115396;28;20926;-65
2021/10/19 00:10:45;;;;;;;13.30;11.77;;;13.70;86.30;;;;;;5115641;28;20443;-65
2021/10/19 00:13:12;;;;;;;16.13;11.27;;;13.80;86.30;;;;;;5115604;28;20446;-65
2021/10/19 00:15:39;;;;;;;14.13;11.67;;;13.80;86.20;;;;;;5115164;28;20984;-65
2021/10/19 00:18:05;;;;;;;15.87;12.33;;;13.80;86.00;;;;;;5115471;28;20442;-65
2021/10/19 00:20:32;;;;;;;12.73;11.30;;;13.80;86.20;;;;;;5115460;28;20447;-65
2021/10/19 00:22:59;;;;;;;16.80;12.77;;;13.90;86.10;;;;;;5115409;28;20512;-65
2021/10/19 00:25:26;;;;;;;14.70;13.20;;;13.90;86.10;;;;;;5115278;28;20467;-66
2021/10/19 00:27:54;;;;;;;16.37;12.33;;;13.90;86.00;;;;;;5114947;28;20458;-65
2021/10/19 00:30:21;;;;;;;13.90;12.50;;;13.90;85.80;;;;;;5115221;28;20443;-65
2021/10/19 00:32:47;;;;;;;18.53;13.33;;;14.00;86.50;;;;;;5115173;27;20485;-65
2021/10/19 00:35:14;;;;;;;14.20;12.90;;;14.00;86.50;;;;;;5114617;28;20840;-65
2021/10/19 00:37:41;;;;;;;13.87;12.47;;;13.90;86.60;;;;;;5115151;28;20439;-65
2021/10/19 00:40:09;;;;;;;14.70;12.70;;;13.90;87.00;;;;;;5115066;28;20466;-65
2021/10/19 00:42:36;;;;;;;12.90;11.60;;;13.90;87.30;;;;;;5114684;28;20442;-65
2021/10/19 00:45:05;;;;;;;12.97;11.70;;;13.90;87.80;;;;;;5114874;28;20478;-65
2021/10/19 00:47:33;;;;;;;15.23;13.40;;;13.90;87.60;;;;;;5114853;28;20478;-65
2021/10/19 00:50:00;;;;;;;13.90;12.37;;;13.90;88.20;;;;;;5114855;28;20443;-65
2021/10/19 00:52:27;;;;;;;13.60;12.20;;;13.90;88.60;;;;;;5114899;28;20521;-65
2021/10/19 00:54:55;;;;;;;12.37;11.07;;;13.80;88.70;;;;;;5114735;28;20471;-65
2021/10/19 00:57:22;;;;;;;14.37;11.73;;;13.80;89.00;;;;;;5113648;28;20438;-65
2021/10/19 00:59:49;;;;;;;13.27;11.93;;;13.80;89.00;;;;;;5114714;28;20442;-65
2021/10/19 01:02:17;;;;;;;15.70;13.20;;;13.90;89.30;;;;;;5114680;28;20455;-65
2021/10/19 01:04:44;;;;;;;11.60;10.30;;;13.80;89.40;;;;;;5114518;28;20497;-65
2021/10/19 01:07:12;;;;;;;16.43;11.60;;;13.80;89.30;;;;;;5114572;28;20482;-65
2021/10/19 01:09:39;;;;;;;17.03;12.00;;;13.80;89.60;;;;;;5114178;28;20443;-65
2021/10/19 01:12:08;;;;;;;12.77;11.47;;;13.80;89.60;;;;;;5114425;28;20470;-65
2021/10/19 01:14:35;;;;;;;12.60;11.30;;;13.90;89.50;;;;;;5114363;28;20827;-65
2021/10/19 01:17:01;;;;;;;12.83;11.50;;;13.90;89.70;;;;;;5114119;28;20993;-65
2021/10/19 01:19:30;;;;;;;13.50;12.00;;;13.90;89.70;;;;;;5114396;28;20451;-65
2021/10/19 01:22:00;;;;;;;13.43;12.00;;;13.90;90.20;;;;;;5114376;28;20447;-65
2021/10/19 01:24:27;;;;;;;12.57;10.80;;;13.90;90.40;;;;;;5114276;28;20474;-64
2021/10/19 01:26:54;;;;;;;16.63;13.27;;;13.90;90.50;;;;;;5113829;28;20853;-64
2021/10/19 01:29:20;;;;;;;14.67;13.10;;;13.90;90.80;;;;;;5114193;28;20500;-64
2021/10/19 01:31:48;;;;;;;15.83;13.70;;;13.90;91.10;;;;;;5113926;28;20488;-64
2021/10/19 01:34:15;;;;;;;13.77;12.37;;;13.80;91.30;;;;;;5113883;28;20858;-65
2021/10/19 01:36:42;;;;;;;14.23;12.53;;;13.80;91.50;;;;;;5114176;28;20488;-64
2021/10/19 01:39:11;;;;;;;15.40;13.87;;;13.80;91.90;;;;;;5114100;28;20439;-64
2021/10/19 01:41:38;;;;;;;13.53;12.13;;;13.70;92.20;;;;;;5113700;28;20962;-65
2021/10/19 01:44:06;;;;;;;21.87;13.47;;;13.80;92.30;;;;;;5113674;28;20901;-65
2021/10/19 01:46:32;;;;;;;15.60;13.37;;;13.70;92.20;;;;;;5114006;28;20482;-64
2021/10/19 01:48:59;;;;;;;14.17;12.70;;;13.70;92.70;;;;;;5113980;28;20529;-64
2021/10/19 01:51:27;;;;;;;15.20;13.70;;;13.60;92.80;;;;;;5114019;28;20432;-64
2021/10/19 01:53:54;;;;;;;20.97;13.70;;;13.60;93.10;;;;;;5113827;28;20454;-64
2021/10/19 01:56:22;;;;;;;16.17;14.47;;;13.60;93.20;;;;;;5113868;28;20810;-64
2021/10/19 01:58:49;;;;;;;15.97;14.20;;;13.60;93.20;;;;;;5113619;28;20932;-64
2021/10/19 02:01:15;;;;;;;14.97;13.33;;;13.60;93.80;;;;;;5114427;28;20447;-64
2021/10/19 02:03:42;;;;;;;15.03;13.30;;;13.50;94.00;;;;;;5113602;28;20439;-64
2021/10/19 02:06:09;;;;;;;15.47;13.83;;;13.50;94.10;;;;;;5113649;28;20462;-64
2021/10/19 02:08:36;;;;;;;13.83;12.43;;;13.60;94.20;;;;;;5116116;28;20439;-64
2021/10/19 02:11:03;;;;;;;15.47;13.60;;;13.50;94.30;;;;;;5118063;28;20446;-64
2021/10/19 02:13:31;;;;;;;18.30;14.97;;;13.60;94.40;;;;;;5117983;28;20538;-64
2021/10/19 02:15:58;;;;;;;14.03;12.43;;;13.60;94.30;;;;;;5117865;28;20468;-64
2021/10/19 02:18:24;;;;;;;14.07;12.50;;;13.60;94.20;;;;;;5117853;28;20447;-64
2021/10/19 02:20:51;;;;;;;13.80;12.20;;;13.60;94.20;;;;;;5117797;27;20431;-64
2021/10/19 02:23:18;;;;;;;15.40;12.67;;;13.60;94.20;;;;;;5117843;28;20436;-65
2021/10/19 02:25:45;;;;;;;14.20;12.83;;;13.70;94.30;;;;;;5117321;28;20462;-65
2021/10/19 02:28:11;;;;;;;15.13;13.73;;;13.70;94.50;;;;;;5117604;28;20482;-65
2021/10/19 02:30:39;;;;;;;16.20;14.50;;;13.70;94.40;;;;;;5117320;27;20442;-65
2021/10/19 02:33:06;;;;;;;14.33;12.93;;;13.70;94.60;;;;;;5117558;28;20438;-65
2021/10/19 02:35:33;;;;;;;14.77;13.27;;;13.60;94.90;;;;;;5117182;28;20477;-65
2021/10/19 02:38:00;;;;;;;15.37;13.70;;;13.70;94.90;;;;;;5117471;28;20438;-65
2021/10/19 02:40:27;;;;;;;14.30;12.80;;;13.70;94.90;;;;;;5117545;28;20427;-65
2021/10/19 02:42:54;;;;;;;13.90;12.50;;;13.70;94.90;;;;;;5117421;28;20442;-65
2021/10/19 02:45:20;;;;;;;15.77;14.10;;;13.70;94.90;;;;;;5116989;28;20879;-65
2021/10/19 02:47:48;;;;;;;15.60;11.60;;;13.80;95.00;;;;;;5117240;28;20842;-65
2021/10/19 02:50:15;;;;;;;15.77;13.50;;;13.80;94.80;;;;;;5116924;28;20927;-65
2021/10/19 02:52:42;;;;;;;15.27;12.73;;;13.80;94.90;;;;;;5116962;28;20898;-65
2021/10/19 02:55:12;;;;;;;16.20;14.23;;;13.90;94.90;;;;;;5116771;27;20983;-65
2021/10/19 02:57:39;;;;;;;14.33;12.83;;;13.90;94.90;;;;;;5117085;28;20446;-65
2021/10/19 03:00:07;;;;;;;14.60;13.10;;;13.90;95.00;;;;;;5117046;28;20438;-65
2021/10/19 03:02:34;;;;;;;14.10;12.63;;;13.90;94.90;;;;;;5117011;28;20446;-65
2021/10/19 03:05:02;;;;;;;16.70;14.30;;;14.00;94.90;;;;;;5116877;28;20476;-65
2021/10/19 03:07:29;;;;;;;16.03;14.43;;;14.00;95.00;;;;;;5116858;28;20475;-65
2021/10/19 03:09:56;;;;;;;14.37;12.90;;;14.00;94.90;;;;;;5116892;28;20446;-64
2021/10/19 03:12:23;;;;;;;16.43;14.27;;;14.00;95.00;;;;;;5116568;27;20964;-65
2021/10/19 03:14:49;;;;;;;16.27;14.60;;;14.10;95.40;;;;;;5116826;28;20803;-65
2021/10/19 03:17:16;;;;;;;15.83;14.13;;;14.00;95.40;;;;;;5116746;28;20449;-65
2021/10/19 03:19:43;;;;;;;17.50;14.10;;;14.00;95.50;;;;;;5115852;28;20486;-65
2021/10/19 03:22:11;;;;;;;13.60;12.20;;;14.10;95.60;;;;;;5116326;28;20920;-65
2021/10/19 03:24:38;;;;;;;13.43;12.13;;;14.10;95.60;;;;;;5116639;28;20470;-65
2021/10/19 03:27:05;;;;;;;14.10;12.60;;;14.10;95.40;;;;;;5116561;28;20573;-65
2021/10/19 03:29:32;;;;;;;14.47;12.97;;;14.10;95.30;;;;;;5116624;28;20807;-65
2021/10/19 03:31:58;;;;;;;16.27;13.70;;;14.20;95.10;;;;;;5116473;28;20439;-65
2021/10/19 03:34:25;;;;;;;15.67;13.50;;;14.20;95.00;;;;;;5116098;28;20479;-65
2021/10/19 03:36:52;;;;;;;18.00;13.80;;;14.20;94.80;;;;;;5116399;27;20806;-65
2021/10/19 03:39:20;;;;;;;21.03;14.20;;;14.20;94.60;;;;;;5116350;28;20446;-65
2021/10/19 03:41:47;;;;;;;14.73;13.23;;;14.30;94.50;;;;;;5116294;28;20458;-65
2021/10/19 03:44:14;;;;;;;14.47;13.00;;;14.20;94.30;;;;;;5116178;28;20467;-65
2021/10/19 03:46:40;;;;;;;14.90;13.10;;;14.30;94.20;;;;;;5115808;28;20936;-65
2021/10/19 03:49:07;;;;;;;16.00;13.57;;;14.30;94.20;;;;;;5116122;28;20500;-65
2021/10/19 03:51:34;;;;;;;14.40;12.90;;;14.30;94.10;;;;;;5116120;28;20446;-65
2021/10/19 03:54:01;;;;;;;17.20;13.70;;;14.30;94.10;;;;;;5115682;28;20435;-65
2021/10/19 03:56:29;;;;;;;15.83;13.63;;;14.30;94.10;;;;;;5116852;28;20454;-65
2021/10/19 03:58:55;;;;;;;18.57;14.17;;;14.30;94.10;;;;;;5116016;28;20439;-65
2021/10/19 04:01:22;;;;;;;14.67;13.27;;;14.30;94.10;;;;;;5115595;28;20924;-65
2021/10/19 04:03:49;;;;;;;14.70;13.20;;;14.30;94.10;;;;;;5115482;28;20446;-66
2021/10/19 04:06:16;;;;;;;16.70;14.50;;;14.30;94.10;;;;;;5115418;28;20956;-64
2021/10/19 04:08:42;;;;;;;16.57;14.77;;;14.30;94.30;;;;;;5115718;28;20463;-65
2021/10/19 04:11:09;;;;;;;18.07;14.90;;;14.30;94.20;;;;;;5115637;28;20450;-65
2021/10/19 04:13:37;;;;;;;16.80;14.97;;;14.30;94.20;;;;;;5115606;28;20446;-64
2021/10/19 04:16:04;;;;;;;16.17;14.57;;;14.30;94.20;;;;;;5115534;28;20586;-64
2021/10/19 04:18:31;;;;;;;18.80;14.33;;;14.30;94.10;;;;;;5115579;28;20443;-64
2021/10/19 04:20:58;;;;;;;15.90;14.20;;;14.30;94.10;;;;;;5115566;27;20431;-64
2021/10/19 04:23:25;;;;;;;19.50;14.97;;;14.30;94.00;;;;;;5116411;28;20801;-64
2021/10/19 04:25:51;;;;;;;19.00;15.80;;;14.30;94.00;;;;;;5115396;28;20474;-65
2021/10/19 04:28:18;;;;;;;17.10;15.40;;;14.30;94.10;;;;;;5114990;28;20485;-65
2021/10/19 04:30:47;;;;;;;17.00;13.93;;;14.30;94.10;;;;;;5115305;28;20454;-65
2021/10/19 04:33:15;;;;;;;16.73;15.03;;;14.30;94.00;;;;;;5115211;28;20541;-65
2021/10/19 04:35:42;;;;;;;18.70;16.80;;;14.20;94.00;;;;;;5114828;28;20486;-65
2021/10/19 04:38:09;;;;;;;23.30;16.70;;;14.20;94.10;;;;;;5115211;27;20506;-65
2021/10/19 04:40:35;;;;;;;17.13;15.33;;;14.20;94.20;;;;;;5115128;28;20449;-65
2021/10/19 04:43:03;;;;;;;19.00;15.57;;;14.30;94.30;;;;;;5115094;28;20427;-64
2021/10/19 04:45:30;;;;;;;18.27;16.37;;;14.20;94.20;;;;;;5114955;28;20466;-65
2021/10/19 04:48:00;;;;;;;17.07;15.23;;;14.20;94.40;;;;;;5114607;28;20988;-65
2021/10/19 04:50:28;;;;;;;19.30;17.30;;;14.10;94.50;;;;;;5115082;28;20484;-65
2021/10/19 04:52:55;;;;;;;18.67;16.70;;;14.10;94.60;;;;;;5114817;28;20454;-65
2021/10/19 04:55:22;;;;;;;17.20;15.50;;;14.10;95.10;;;;;;5114807;28;20470;-65
2021/10/19 04:57:48;;;;;;;17.77;15.90;;;14.10;95.30;;;;;;5114855;28;20443;-65
2021/10/19 05:00:16;;;;;;;15.97;14.20;;;14.10;95.40;;;;;;5114797;28;20799;-65
2021/10/19 05:02:44;;;;;;;19.70;14.57;;;14.10;95.60;;;;;;5114320;28;20478;-64
2021/10/19 05:05:12;;;;;;;18.90;14.97;;;14.10;95.90;;;;;;5114240;28;20968;-64
2021/10/19 05:07:39;;;;;;;16.80;15.10;;;14.10;96.20;;;;;;5114513;28;20478;-65
2021/10/19 05:10:06;;;;;;;16.20;13.90;;;14.10;96.60;;;;;;5114542;28;20538;-64
2021/10/19 05:12:33;;;;;;;18.13;16.37;;;14.10;96.70;;;;;;5114508;28;20478;-64
2021/10/19 05:15:00;;;;;;;17.43;14.80;;;14.10;97.30;;;;;;5114509;28;20463;-64
2021/10/19 05:17:27;;;;;;;19.87;14.73;;;14.10;97.50;;;;;;5114457;28;20441;-64
2021/10/19 05:19:54;;;;;;;21.50;15.20;;;14.10;97.70;;;;;;5114124;28;20932;-64
2021/10/19 05:22:22;;;;;;;16.97;15.23;;;14.10;98.30;;;;;;5114379;28;20473;-64
2021/10/19 05:24:49;;;;;;;21.20;16.90;;;14.10;98.20;;;;;;5114291;28;20463;-64
2021/10/19 05:27:16;;;;;;;18.70;16.77;;;14.00;98.40;;;;;;5114184;28;20447;-65
2021/10/19 05:29:43;;;;;;;18.73;15.77;;;14.00;98.50;;;;;;5114200;28;20439;-65
2021/10/19 05:32:10;;;;;;;17.27;15.40;;;14.00;98.30;;;;;;5114108;28;20423;-65
2021/10/19 05:34:36;;;;;;;15.03;13.47;;;14.10;98.40;;;;;;5113939;28;20474;-64
2021/10/19 05:37:03;;;;;;;16.90;15.00;;;14.00;98.70;;;;;;5114200;28;20435;-64
2021/10/19 05:39:31;;;;;;;16.47;14.77;;;14.10;98.80;;;;;;5114172;28;20424;-65
2021/10/19 05:41:59;;;;;;;16.67;15.07;;;14.10;98.90;;;;;;5113667;28;20442;-64
2021/10/19 05:44:26;;;;;;;18.17;14.07;;;14.10;99.10;;;;;;5113422;28;20504;-64
2021/10/19 05:46:53;;;;;;;14.83;13.17;;;14.10;99.30;;;;;;5114005;28;20482;-64
2021/10/19 05:49:20;;;;;;;15.57;13.83;;;14.10;99.30;;;;;;5113967;28;20462;-64
2021/10/19 05:51:48;;;;;;;15.50;13.70;;;14.10;99.30;;;;;;5114764;28;20924;-64
2021/10/19 05:54:16;;;;;;;16.80;13.53;;;14.10;99.60;;;;;;5114023;28;20471;-64
2021/10/19 05:56:44;;;;;;;16.90;14.40;;;14.20;99.80;;;;;;5113688;28;20431;-64
2021/10/19 05:59:11;;;;;;;15.13;12.83;;;14.20;99.60;;;;;;5113914;28;20450;-64
2021/10/19 06:01:38;;;;;;;13.40;12.00;;;14.20;99.70;;;;;;5113839;28;20454;-64
2021/10/19 06:04:05;;;;;;;14.17;12.77;;;14.20;99.60;;;;;;5113916;28;20446;-65
2021/10/19 06:06:32;;;;;;;14.27;12.53;;;14.20;99.70;;;;;;5113901;28;20446;-65
2021/10/19 06:08:58;;;;;;;13.83;12.23;;;14.20;99.70;;;;;;5113464;28;20971;-64
2021/10/19 06:11:25;;;;;;;14.23;12.73;;;14.30;99.70;;;;;;5113652;28;20447;-65
2021/10/19 06:13:53;;;;;;;14.97;13.37;;;14.30;99.60;;;;;;5113651;28;20446;-65
2021/10/19 06:16:20;;;;;;;12.07;10.77;;;14.30;99.30;;;;;;5113484;28;20888;-64
2021/10/19 06:18:47;;;;;;;12.47;11.23;;;14.30;99.30;;;;;;5113486;28;20443;-64
2021/10/19 06:21:14;;;;;;;12.77;11.47;;;14.40;99.30;;;;;;5113383;28;20933;-64
2021/10/19 06:23:40;;;;;;;13.10;11.50;;;14.40;99.20;;;;;;5113563;28;20889;-64
2021/10/19 06:26:07;;;;;;;11.23;10.17;;;14.40;99.10;;;;;;5113754;28;20458;-65
2021/10/19 06:28:34;;;;;;;12.00;10.27;;;14.40;99.20;;;;;;5113487;28;21070;-65
2021/10/19 06:31:02;;;;;;;11.50;9.90;;;14.40;99.10;;;;;;5113668;28;20442;-64
2021/10/19 06:33:29;;;;;;;11.53;9.73;;;14.40;98.80;;;;;;5113525;28;20517;-65
2021/10/19 06:35:56;;;;;;;11.90;10.13;;;14.50;98.60;;;;;;5113347;28;20471;-65
2021/10/19 06:38:22;;;;;;;10.60;9.50;;;14.50;98.50;;;;;;5113627;28;20446;-65
2021/10/19 06:40:49;;;;;;;12.93;11.63;;;14.60;98.50;;;;;;5113266;28;20808;-66
2021/10/19 06:43:16;;;;;;;11.20;9.50;;;14.60;98.60;;;;;;5113541;28;20439;-66
2021/10/19 06:45:43;;;;;;;9.73;8.73;;;14.60;98.60;;;;;;5113202;28;20458;-66
2021/10/19 06:48:11;;;;;;;9.57;8.57;;;14.60;98.80;;;;;;5113140;28;20858;-66
2021/10/19 06:50:38;;;;;;;11.77;8.90;;;14.60;98.60;;;;;;5113508;28;20936;-66
2021/10/19 06:53:05;;;;;;;8.50;7.17;;;14.70;98.60;;;;;;5113432;28;20466;-66
2021/10/19 06:55:31;;;;;;;9.13;8.03;;;14.70;98.40;;;;;;5114932;28;20478;-66
2021/10/19 06:57:59;;;;;;;9.10;7.83;;;14.70;98.30;;;;;;5116818;28;20439;-66
2021/10/19 07:00:25;;;;;;;8.77;7.40;;;14.80;98.20;;;;;;5117125;28;20443;-65
2021/10/19 07:02:52;;;;;;;8.60;7.80;;;14.80;98.20;;;;;;5117058;28;20431;-66
2021/10/19 07:05:20;;;;;;;9.40;8.50;;;14.80;98.10;;;;;;5116902;28;20469;-68
2021/10/19 07:07:47;;;;;;;8.90;6.63;;;14.80;98.10;;;;;;5116543;28;20936;-65
2021/10/19 07:10:16;;;;;;;7.83;6.90;;;14.90;98.00;;;;;;5116612;28;20537;-65
2021/10/19 07:12:43;;;;;;;8.40;7.60;;;14.90;97.80;;;;;;5116867;28;20522;-66
2021/10/19 07:15:11;;;;;;;7.63;6.93;;;14.90;97.60;;;;;;5116764;28;20493;-66
2021/10/19 07:17:38;;;;;;;9.50;8.33;;;15.00;97.70;;;;;;5116418;28;20863;-66
2021/10/19 07:20:07;;;;;;;8.00;7.20;;;15.00;97.60;;;;;;5116774;28;20458;-66
2021/10/19 07:22:35;;;;;;;9.70;8.10;;;15.00;97.70;;;;;;5116751;28;20476;-66
2021/10/19 07:25:03;;;;;;;7.63;6.73;;;15.00;97.70;;;;;;5116654;28;20462;-66
2021/10/19 07:27:30;;;;;;;11.33;6.87;;;15.10;97.60;;;;;;5117647;28;20458;-66
2021/10/19 07:29:57;;;;;;;7.87;7.07;;;15.10;97.70;;;;;;5116782;27;20485;-66
2021/10/19 07:32:23;;;;;;;11.03;7.43;;;15.10;97.70;;;;;;5116464;28;20446;-66
2021/10/19 07:34:50;;;;;;;7.47;6.67;;;15.10;97.60;;;;;;5116135;28;20860;-66
2021/10/19 07:37:17;;;;;;;6.90;6.20;;;15.20;97.60;;;;;;5116046;27;20964;-66
2021/10/19 07:39:45;;;;;;;7.20;6.30;;;15.30;97.60;;;;;;5116351;28;20443;-66
2021/10/19 07:42:13;;;;;;;9.43;6.70;;;15.30;97.40;;;;;;5116322;28;20446;-66
2021/10/19 07:44:39;;;;;;;6.80;6.10;;;15.30;97.40;;;;;;5116552;28;20462;-66
2021/10/19 07:47:06;;;;;;;7.60;6.90;;;15.30;97.40;;;;;;5115901;28;20811;-66
2021/10/19 07:49:33;;;;;;;6.80;6.17;;;15.40;97.40;;;;;;5116083;28;20493;-66
2021/10/19 07:52:00;;;;;;;7.03;5.97;;;15.40;97.30;;;;;;5116180;28;20442;-66
2021/10/19 07:54:26;;;;;;;8.23;7.33;;;15.40;97.30;;;;;;5115978;28;20467;-66
2021/10/19 07:56:54;;;;;;;8.90;5.73;;;15.40;97.30;;;;;;5115676;28;20808;-66
2021/10/19 07:59:21;;;;;;;6.60;6.00;;;15.40;97.30;;;;;;5115897;27;20494;-66
2021/10/19 08:01:48;;;;;;;10.67;7.60;;;15.50;97.20;;;;;;5115820;28;20451;-66
2021/10/19 08:04:15;;;;;;;8.60;7.80;;;15.50;97.10;;;;;;5115807;28;20512;-66
2021/10/19 08:06:41;;;;;;;6.77;5.80;;;15.50;97.40;;;;;;5115472;28;20443;-66
2021/10/19 08:09:08;;;;;;;6.30;5.70;;;15.50;97.40;;;;;;5115360;27;20474;-66
2021/10/19 08:11:35;;;;;;;7.20;6.50;;;15.50;97.50;;;;;;5115737;28;20445;-66
2021/10/19 08:14:03;;;;;;;10.40;4.77;;;15.50;97.60;;;;;;5115268;28;20853;-66
2021/10/19 08:16:30;;;;;;;5.77;5.17;;;15.50;97.60;;;;;;5115643;27;20427;-66
2021/10/19 08:18:56;;;;;;;5.63;5.13;;;15.50;97.70;;;;;;5115554;28;20443;-66
2021/10/19 08:21:23;;;;;;;7.10;6.40;;;15.60;97.80;;;;;;5115564;28;20439;-66
2021/10/19 08:23:50;;;;;;;6.70;6.10;;;15.60;97.80;;;;;;5115905;28;20434;-66
2021/10/19 08:26:17;;;;;;;6.63;5.97;;;15.60;97.80;;;;;;5115542;28;20557;-66
2021/10/19 08:28:44;;;;;;;7.40;6.70;;;15.60;97.90;;;;;;5115538;28;20885;-66
2021/10/19 08:31:14;;;;;;;6.90;5.33;;;15.60;98.10;;;;;;5115353;28;20447;-66
2021/10/19 08:33:43;;;;;;;9.37;6.83;;;15.70;98.10;;;;;;5115142;28;20435;-66
2021/10/19 08:36:10;;;;;;;7.10;5.60;;;15.70;98.30;;;;;;5115601;28;20463;-66
2021/10/19 08:38:38;;;;;;;5.47;4.97;;;15.80;98.80;;;;;;5114926;28;20426;-66
2021/10/19 08:41:05;;;;;;;6.13;4.60;;;15.80;98.50;;;;;;5114851;28;20431;-66
2021/10/19 08:43:32;;;;;;;6.20;4.90;;;15.90;98.60;;;;;;5115036;28;20439;-66
2021/10/19 08:45:59;;;;;;;7.37;5.00;;;15.90;98.70;;;;;;5114619;28;20498;-66
2021/10/19 08:48:27;;;;;;;9.77;7.17;;;15.90;98.70;;;;;;5114746;28;20490;-66
2021/10/19 08:50:57;;;;;;;12.70;8.30;;;16.00;98.70;;;;;;5114882;28;20454;-66
2021/10/19 08:53:24;;;;;;;7.73;5.23;;;16.00;98.80;;;;;;5114882;28;20469;-66
2021/10/19 08:55:51;;;;;;;9.87;5.50;;;16.00;98.70;;;;;;5114778;28;20478;-66
2021/10/19 08:58:18;;;;;;;10.80;4.90;;;16.10;98.80;;;;;;5114768;28;20476;-66
2021/10/19 09:00:45;;;;;;;5.87;4.87;;;16.10;98.80;;;;;;5114780;27;20439;-66
2021/10/19 09:03:12;;;;;;;5.23;4.30;;;16.20;98.90;;;;;;5114757;28;20423;-66
2021/10/19 09:05:46;;;;;;;4.33;4.00;;;16.20;98.90;;;;;;5114226;28;20826;-66
2021/10/19 09:08:14;;;;;;;4.87;3.43;;;16.30;98.90;;;;;;5114603;28;20460;-66
2021/10/19 09:10:42;;;;;;;3.33;3.03;;;16.40;98.80;;;;;;5114604;27;20443;-66
2021/10/19 09:13:12;;;;;;;6.63;3.37;;;16.40;98.90;;;;;;5114518;27;20451;-66
2021/10/19 09:15:42;;;;;;;7.90;3.87;;;16.50;98.80;;;;;;5114429;27;20477;-66
2021/10/19 09:18:11;;;;;;;6.10;3.47;;;16.50;98.80;;;;;;5113471;28;20947;-66
2021/10/19 09:20:42;;;;;;;9.00;3.40;;;16.50;98.80;;;;;;5114373;28;20481;-66
2021/10/19 09:23:12;;;;;;;6.13;3.90;;;16.60;98.90;;;;;;5114444;28;20423;-66
2021/10/19 09:25:40;;;;;;;6.13;3.40;;;16.60;99.00;;;;;;5114419;27;20471;-66
2021/10/19 09:28:10;;;;;;;7.73;3.97;;;16.60;99.10;;;;;;5114365;28;20451;-66
2021/10/19 09:30:41;;;;;;;5.27;2.93;;;16.60;99.10;;;;;;5114012;28;20463;-66
2021/10/19 09:33:11;;;;;;;5.40;3.60;;;16.70;99.20;;;;;;5113984;28;20792;-66
2021/10/19 09:35:37;;;;;;;6.00;3.27;;;16.70;99.20;;;;;;5113968;28;20483;-66
2021/10/19 09:38:09;;;;;;;3.00;2.30;;;16.80;99.30;;;;;;5114067;28;20443;-66
2021/10/19 09:40:37;;;;;;;2.40;2.20;;;16.80;99.40;;;;;;5114548;28;20441;-66
2021/10/19 09:43:06;;;;;;;4.33;2.40;;;16.90;99.70;;;;;;5114661;28;20427;-66
2021/10/19 09:45:34;;;;;;;3.30;2.10;;;16.90;99.80;;;;;;5114561;28;20466;-66
2021/10/19 09:48:02;;;;;;;2.60;2.10;;;16.90;99.90;;;;;;5114128;28;20491;-66
2021/10/19 09:50:30;;;;;;;1.70;1.60;;;17.00;99.90;;;;;;5113613;28;20987;-66
2021/10/19 09:52:57;;;;;;;1.63;1.53;;;17.00;99.90;;;;;;5114206;28;20475;-66
2021/10/19 09:55:26;;;;;;;3.13;2.47;;;17.00;99.90;;;;;;5114065;28;20466;-66
2021/10/19 09:57:53;;;;;;;2.43;1.90;;;17.00;99.90;;;;;;5114194;28;20434;-65
2021/10/19 10:00:23;;;;;;;3.07;2.40;;;17.00;99.90;;;;;;5113778;28;20803;-65
2021/10/19 10:02:50;;;;;;;1.77;1.67;;;17.10;99.90;;;;;;5113716;28;20915;-66
2021/10/19 10:05:17;;;;;;;1.97;1.87;;;17.10;99.90;;;;;;5113906;28;20470;-66
2021/10/19 10:07:46;;;;;;;2.17;1.97;;;17.10;99.90;;;;;;5114081;28;20427;-66
2021/10/19 10:10:15;;;;;;;1.63;1.53;;;17.20;99.90;;;;;;5113825;28;20501;-66
2021/10/19 10:12:50;;;;;;;4.40;2.30;;;17.20;99.90;;;;;;5113538;28;20487;-66
2021/10/19 10:15:25;;;;;;;1.80;1.70;;;17.20;99.90;;;;;;5114357;28;20469;-66
2021/10/19 10:17:55;;;;;;;1.77;1.67;;;17.20;99.90;;;;;;5113919;28;20511;-66
2021/10/19 10:20:31;;;;;;;3.50;1.87;;;17.20;99.90;;;;;;5113914;28;20474;-66
2021/10/19 10:22:58;;;;;;;2.13;1.67;;;17.30;99.90;;;;;;5113829;28;20423;-66
2021/10/19 10:25:25;;;;;;;1.80;1.70;;;17.20;99.90;;;;;;5113756;28;20462;-66
2021/10/19 10:27:53;;;;;;;1.60;1.50;;;17.30;99.90;;;;;;5113615;28;20486;-66
2021/10/19 10:30:22;;;;;;;3.47;1.90;;;17.30;99.90;;;;;;5116645;28;20478;-66
2021/10/19 10:32:51;;;;;;;1.77;1.63;;;17.30;99.90;;;;;;5117598;28;20443;-66
2021/10/19 10:35:19;;;;;;;2.37;1.80;;;17.30;99.90;;;;;;5117158;28;20474;-66
2021/10/19 10:37:51;;;;;;;1.93;1.70;;;17.30;99.90;;;;;;5117580;28;20450;-66
2021/10/19 10:40:29;;;;;;;2.10;1.70;;;17.30;99.90;;;;;;5117545;28;20453;-66
2021/10/19 10:42:58;;;;;;;2.50;1.53;;;17.40;99.90;;;;;;5117452;28;20473;-66
2021/10/19 10:45:30;;;;;;;2.97;1.80;;;17.40;99.90;;;;;;5117324;28;20493;-66
2021/10/19 10:47:59;;;;;;;2.17;1.73;;;17.50;99.90;;;;;;5117429;28;20435;-66
2021/10/19 10:50:27;;;;;;;2.47;1.80;;;17.50;99.90;;;;;;5117172;27;20821;-66
2021/10/19 10:52:58;;;;;;;2.17;1.50;;;17.60;99.90;;;;;;5117269;28;20470;-66
2021/10/19 10:55:25;;;;;;;4.17;1.97;;;17.60;99.90;;;;;;5117173;28;20516;-66
2021/10/19 10:57:51;;;;;;;1.70;1.60;;;17.70;99.90;;;;;;5116882;28;20944;-66
2021/10/19 11:00:25;;;;;;;3.20;1.87;;;17.70;99.90;;;;;;5116736;28;20920;-66
2021/10/19 11:03:06;;;;;;;1.97;1.87;;;17.80;99.90;;;;;;5117030;28;20476;-66
2021/10/19 11:05:33;;;;;;;1.60;1.50;;;17.90;99.90;;;;;;5116998;28;20473;-66
2021/10/19 11:07:59;;;;;;;1.90;1.80;;;17.90;99.90;;;;;;5117282;28;20427;-66
2021/10/19 11:10:26;;;;;;;2.70;2.07;;;17.90;99.90;;;;;;5116743;28;20482;-66
2021/10/19 11:12:59;;;;;;;4.60;2.10;;;18.10;99.90;;;;;;5117038;28;20427;-66
2021/10/19 11:15:27;;;;;;;2.50;2.00;;;18.20;99.90;;;;;;5116391;27;20978;-66
2021/10/19 11:17:56;;;;;;;3.37;2.60;;;18.30;99.90;;;;;;5116852;27;20403;-66
2021/10/19 11:20:24;;;;;;;2.73;2.10;;;18.40;99.90;;;;;;5117342;28;20462;-66
2021/10/19 11:22:52;;;;;;;2.57;2.37;;;18.50;99.40;;;;;;5116368;28;20496;-66
2021/10/19 11:25:20;;;;;;;2.97;2.57;;;18.50;99.30;;;;;;5116617;27;20466;-66
2021/10/19 11:27:49;;;;;;;2.90;2.70;;;18.60;99.10;;;;;;5116588;28;20454;-66
2021/10/19 11:30:16;;;;;;;3.03;2.73;;;18.70;98.80;;;;;;5116096;28;20479;-66
2021/10/19 11:32:44;;;;;;;3.53;2.83;;;18.70;98.80;;;;;;5116473;28;20443;-66
2021/10/19 11:35:11;;;;;;;5.40;2.93;;;18.80;98.70;;;;;;5116144;28;20475;-67
2021/10/19 11:37:39;;;;;;;3.43;3.10;;;18.90;98.50;;;;;;5116115;27;20963;-66
2021/10/19 11:40:08;;;;;;;4.07;3.60;;;19.00;98.60;;;;;;5115647;28;20883;-66
2021/10/19 11:42:46;;;;;;;5.40;3.90;;;19.10;98.30;;;;;;5116058;28;20439;-66
2021/10/19 11:45:16;;;;;;;4.00;3.70;;;19.00;98.20;;;;;;5116118;28;20463;-66
2021/10/19 11:47:46;;;;;;;4.80;3.67;;;19.00;97.90;;;;;;5116214;28;20427;-66
2021/10/19 11:50:14;;;;;;;5.00;4.60;;;19.20;98.20;;;;;;5116975;28;20522;-67
2021/10/19 11:52:41;;;;;;;4.40;4.00;;;19.30;98.20;;;;;;5115916;28;20431;-66
2021/10/19 11:55:09;;;;;;;4.60;3.70;;;19.40;98.70;;;;;;5115681;28;20486;-67
2021/10/19 11:57:37;;;;;;;4.03;3.63;;;19.70;98.50;;;;;;5116005;28;20873;-66
2021/10/19 12:00:06;;;;;;;5.73;4.70;;;19.90;98.30;;;;;;5116065;27;20447;-67
2021/10/19 12:02:33;;;;;;;8.07;4.50;;;20.20;97.40;;;;;;5115972;28;20443;-67
2021/10/19 12:05:07;;;;;;;4.40;4.00;;;20.20;96.90;;;;;;5115938;28;20467;-67
2021/10/19 12:07:34;;;;;;;4.47;4.07;;;20.30;96.50;;;;;;5115950;28;20423;-67
2021/10/19 12:10:09;;;;;;;6.30;3.47;;;20.30;95.80;;;;;;5115456;28;20486;-66
2021/10/19 12:12:36;;;;;;;4.57;4.07;;;20.30;95.90;;;;;;5115866;27;20799;-67
2021/10/19 12:15:04;;;;;;;3.87;3.50;;;20.30;95.90;;;;;;5115349;28;21002;-67
2021/10/19 12:17:31;;;;;;;3.93;3.63;;;20.20;96.00;;;;;;5115516;28;20435;-66
2021/10/19 12:19:58;;;;;;;4.43;4.13;;;20.10;96.10;;;;;;5115458;28;20439;-66
2021/10/19 12:22:34;;;;;;;4.87;4.47;;;20.00;96.50;;;;;;5115135;28;20962;-66
2021/10/19 12:25:04;;;;;;;4.50;4.10;;;19.80;96.90;;;;;;5115163;28;20992;-67
2021/10/19 12:27:31;;;;;;;6.60;4.37;;;19.70;97.40;;;;;;5115389;28;20431;-67
2021/10/19 12:29:57;;;;;;;4.30;3.90;;;19.60;97.50;;;;;;5115335;28;20474;-67
2021/10/19 12:32:33;;;;;;;4.27;3.90;;;19.60;97.60;;;;;;5115276;28;20450;-67
2021/10/19 12:35:00;;;;;;;4.10;3.80;;;19.50;97.70;;;;;;5115065;28;20524;-67
2021/10/19 12:37:34;;;;;;;4.40;4.00;;;19.50;98.20;;;;;;5114871;28;20446;-67